Dodge, North Dakota
Current Conditions -  °F | °C
As of 11:15 PM on Saturday 22 Nov 2014 (Local Time) from KHZE Reporting Station
Overcast Overcast  
Wind Chill: 28°   Ceiling: 6500
Heat Index: 34°   Visibility: 10mi
Dew Point: 32°   Wind: 7mph
Humidity: 93%   Direction: 220°SW
Pressure: 29.36"   Gusts: NA
Location:  47.31°N, 102.2°W
Report Text: KHZE 230615Z AUTO 22006KT 10SM OVC065 01/00 A2936 RMK AO2
Loading
Personal Weather Stations






























Interactive Weather Map New forecast layout! Learn more

10-Day Weather Forecast

Advertisements
Track Severe Weather on mobile